Time;durP1;ratioP1;P1;durP2;ratioP2;P2;SDS_P1;SDS_P2;PMS_P1;PMS_P2;Temp;Humidity;BMP_temperature;BMP_pressure;BME280_temperature;BME280_humidity;BME280_pressure;Samples;Min_cycle;Max_cycle;Signal;HPM_P1;HPM_P2
2020/12/18 00:02:17;;;;;;;78.65;37.53;;;;;;;4.25;100.00;101087.56;10753654;81;21186;-82
2020/12/18 00:17:30;;;;;;;79.55;36.35;;;;;;;4.12;100.00;101099.86;10743416;82;21467;-80
2020/12/18 00:32:36;;;;;;;71.72;33.78;;;;;;;4.12;100.00;101099.86;10670137;82;21479;-83
2020/12/18 00:47:41;;;;;;;76.67;35.50;;;;;;;4.05;100.00;101105.41;10621566;81;21125;-84
2020/12/18 01:02:46;;;;;;;69.97;32.90;;;;;;;4.05;100.00;101110.17;10592552;81;21611;-82
2020/12/18 01:17:50;;;;;;;76.62;36.13;;;;;;;3.96;100.00;101102.34;10645392;82;21453;-80
2020/12/18 01:32:54;;;;;;;90.92;41.68;;;;;;;3.93;100.00;101103.80;10640554;81;21039;-81
2020/12/18 01:47:59;;;;;;;71.70;35.98;;;;;;;4.00;100.00;101123.35;10371945;84;21075;-82
2020/12/18 02:03:03;;;;;;;76.17;37.05;;;;;;;3.91;100.00;101116.00;10334666;84;21461;-84
2020/12/18 02:18:09;;;;;;;77.80;34.23;;;;;;;4.04;100.00;101121.46;10425203;84;21029;-81
2020/12/18 02:33:14;;;;;;;99.72;42.95;;;;;;;4.06;100.00;101126.11;10534365;83;21197;-81
2020/12/18 02:48:19;;;;;;;81.32;37.65;;;;;;;4.00;100.00;101128.55;10713595;82;21016;-82
2020/12/18 03:03:24;;;;;;;99.05;41.05;;;;;;;4.03;100.00;101141.02;10702020;81;22053;-81
2020/12/18 03:18:29;;;;;;;93.12;37.58;;;;;;;4.02;100.00;101128.94;10764898;81;21095;-80
2020/12/18 03:33:33;;;;;;;104.05;42.50;;;;;;;4.08;100.00;101121.69;10705723;81;21045;-84
2020/12/18 03:48:38;;;;;;;411.58;139.07;;;;;;;4.16;100.00;101130.42;10779186;82;21036;-83
2020/12/18 04:03:43;;;;;;;309.05;101.67;;;;;;;4.14;100.00;101146.52;10358484;84;21135;-82
2020/12/18 04:18:49;;;;;;;95.03;37.55;;;;;;;4.24;100.00;101136.55;10300609;84;21525;-84
2020/12/18 04:33:54;;;;;;;102.53;40.52;;;;;;;4.31;100.00;101125.77;10761624;81;21016;-83
2020/12/18 04:48:59;;;;;;;108.22;42.23;;;;;;;4.29;100.00;101143.67;10766915;82;21037;-84
2020/12/18 05:04:03;;;;;;;105.78;44.80;;;;;;;4.38;100.00;101165.31;10740006;81;21049;-82
2020/12/18 05:19:08;;;;;;;101.60;38.78;;;;;;;4.36;100.00;101167.12;10722265;82;20993;-84
2020/12/18 05:34:14;;;;;;;104.60;38.75;;;;;;;4.49;100.00;101181.68;10744379;81;21084;-83
2020/12/18 05:49:31;;;;;;;107.90;38.55;;;;;;;4.49;100.00;101177.78;10744078;82;21454;-84
2020/12/18 06:04:37;;;;;;;104.50;41.02;;;;;;;4.45;100.00;101182.75;10751940;82;21021;-81
2020/12/18 06:19:43;;;;;;;119.10;43.65;;;;;;;4.52;100.00;101192.39;10773782;82;21033;-82
2020/12/18 06:34:48;;;;;;;151.00;52.60;;;;;;;4.48;100.00;101196.88;10751700;82;21502;-82
2020/12/18 06:50:12;;;;;;;176.85;63.10;;;;;;;4.63;100.00;101218.23;10754089;82;21012;-83
2020/12/18 07:05:34;;;;;;;139.60;52.25;;;;;;;4.77;100.00;101225.35;10753956;81;21163;-85
2020/12/18 07:20:39;;;;;;;130.85;53.45;;;;;;;4.89;100.00;101230.88;10793305;81;20996;-85
2020/12/18 07:35:45;;;;;;;130.15;51.92;;;;;;;4.97;100.00;101239.14;10687587;81;21583;-84
2020/12/18 07:51:01;;;;;;;153.37;68.57;;;;;;;5.09;100.00;101241.59;10701565;81;21103;-85
2020/12/18 08:06:13;;;;;;;114.40;46.83;;;;;;;5.18;100.00;101255.91;10763129;81;21063;-86
2020/12/18 08:21:27;;;;;;;147.93;55.55;;;;;;;5.16;100.00;101276.80;10824973;81;21091;-83
2020/12/18 08:36:37;;;;;;;136.35;49.40;;;;;;;5.33;100.00;101291.11;10787867;82;21060;-83
2020/12/18 08:51:43;;;;;;;131.87;49.77;;;;;;;5.56;100.00;101294.30;10779913;82;20999;-83
2020/12/18 09:06:53;;;;;;;122.47;42.65;;;;;;;5.64;100.00;101310.37;10753021;81;21575;-83
2020/12/18 09:22:04;;;;;;;121.45;47.20;;;;;;;5.77;100.00;101314.49;10768743;82;21187;-84
2020/12/18 09:37:12;;;;;;;162.53;59.98;;;;;;;5.88;100.00;101301.38;10753194;81;21526;-85
2020/12/18 09:52:17;;;;;;;126.50;46.40;;;;;;;5.98;100.00;101324.77;10745438;81;21044;-85
2020/12/18 10:07:22;;;;;;;122.25;42.93;;;;;;;6.14;100.00;101333.92;10747380;81;21091;-85
2020/12/18 10:22:27;;;;;;;123.50;39.90;;;;;;;6.20;100.00;101331.44;10767792;82;21580;-85
2020/12/18 10:37:31;;;;;;;137.55;48.73;;;;;;;6.25;100.00;101334.64;10751829;81;21092;-85
2020/12/18 10:52:36;;;;;;;153.82;58.45;;;;;;;6.35;100.00;101350.18;10765728;82;21027;-85
2020/12/18 11:07:41;;;;;;;133.63;48.20;;;;;;;6.38;100.00;101347.88;10755029;81;21061;-85
2020/12/18 11:22:45;;;;;;;149.30;55.33;;;;;;;6.41;100.00;101338.09;10755190;81;21530;-85
2020/12/18 11:37:50;;;;;;;128.62;48.25;;;;;;;6.52;100.00;101331.03;10756633;82;21041;-84
2020/12/18 11:52:56;;;;;;;100.20;41.55;;;;;;;6.59;100.00;101324.54;10756431;82;21063;-86
2020/12/18 12:08:01;;;;;;;112.47;43.10;;;;;;;6.65;100.00;101331.17;10740195;81;21023;-86
2020/12/18 12:23:06;;;;;;;98.58;41.65;;;;;;;6.65;100.00;101334.64;10739590;81;21217;-87
2020/12/18 12:38:13;;;;;;;164.07;73.22;;;;;;;6.70;100.00;101336.98;10771608;81;21547;-86
2020/12/18 12:53:18;;;;;;;116.27;48.23;;;;;;;6.66;100.00;101351.12;10759124;81;21036;-87
2020/12/18 13:08:23;;;;;;;86.28;35.73;;;;;;;6.67;100.00;101351.50;10556433;83;21114;-88
2020/12/18 13:23:28;;;;;;;126.87;54.13;;;;;;;6.65;100.00;101363.77;10477869;84;21450;-88
2020/12/18 13:38:33;;;;;;;129.38;49.20;;;;;;;6.71;100.00;101371.27;10447733;84;21105;-87
2020/12/18 13:53:38;;;;;;;141.25;59.10;;;;;;;6.64;100.00;101385.11;10442793;84;21749;-89
2020/12/18 14:08:43;;;;;;;93.87;35.95;;;;;;;6.63;100.00;101401.66;10762829;82;21049;-88
2020/12/18 14:23:49;;;;;;;220.30;87.40;;;;;;;6.62;100.00;101405.19;10765194;82;21387;-87
2020/12/18 14:38:54;;;;;;;137.95;50.85;;;;;;;6.50;100.00;101415.81;10535139;83;21299;-87
2020/12/18 14:54:05;;;;;;;88.70;34.58;;;;;;;6.59;100.00;101424.09;10429332;84;21096;-87
2020/12/18 15:09:13;;;;;;;90.67;40.78;;;;;;;6.68;100.00;101435.34;10746522;82;21623;-86
2020/12/18 15:24:19;;;;;;;102.50;43.30;;;;;;;6.62;100.00;101444.30;10727059;81;21174;-88
2020/12/18 15:39:24;;;;;;;74.25;35.17;;;;;;;6.64;100.00;101441.17;10738593;81;21088;-89
2020/12/18 15:54:30;;;;;;;79.97;36.35;;;;;;;6.62;100.00;101440.87;10727621;82;21116;-88
2020/12/18 16:09:35;;;;;;;99.20;40.08;;;;;;;6.62;100.00;101463.03;10722121;81;21002;-88
2020/12/18 16:24:41;;;;;;;93.70;39.30;;;;;;;6.55;100.00;101465.59;10739390;82;21055;-87
2020/12/18 16:39:46;;;;;;;81.05;32.90;;;;;;;6.47;100.00;101476.42;10738892;81;21064;-87
2020/12/18 16:54:51;;;;;;;111.30;49.18;;;;;;;6.49;100.00;101475.42;10738546;81;21023;-87
2020/12/18 17:09:56;;;;;;;95.60;42.78;;;;;;;6.54;100.00;101469.95;10716294;82;21096;-87
2020/12/18 17:25:02;;;;;;;79.40;37.40;;;;;;;6.49;100.00;101470.20;10715794;82;20989;-88
2020/12/18 17:40:06;;;;;;;70.22;33.08;;;;;;;6.55;100.00;101459.91;10764183;81;21071;-87
2020/12/18 17:55:10;;;;;;;70.80;36.88;;;;;;;6.55;100.00;101451.25;10771916;81;21060;-86
2020/12/18 18:10:15;;;;;;;75.17;32.60;;;;;;;6.39;100.00;101436.41;10719680;81;21539;-81
2020/12/18 18:25:20;;;;;;;67.55;34.60;;;;;;;6.41;100.00;101423.28;10760515;81;21021;-86
2020/12/18 18:40:25;;;;;;;86.15;39.03;;;;;;;6.43;100.00;101427.50;10741133;82;21060;-92
2020/12/18 18:55:31;;;;;;;106.45;45.30;;;;;;;6.32;100.00;101419.38;10733736;81;21671;-82
2020/12/18 19:10:36;;;;;;;109.10;47.83;;;;;;;6.27;100.00;101397.97;10726506;82;21190;-82
2020/12/18 19:25:40;;;;;;;97.47;41.28;;;;;;;6.30;100.00;101396.48;10336631;85;21455;-89
2020/12/18 19:40:45;;;;;;;79.42;36.93;;;;;;;6.20;100.00;101402.63;10418511;84;21110;-85
2020/12/18 19:55:50;;;;;;;85.92;36.80;;;;;;;6.26;100.00;101402.78;10738446;82;21012;-89
2020/12/18 20:10:56;;;;;;;104.58;42.55;;;;;;;6.18;100.00;101427.94;10761223;81;21154;-86
2020/12/18 20:26:00;;;;;;;126.38;50.35;;;;;;;6.23;100.00;101452.00;10715467;81;21048;-91
2020/12/18 20:41:06;;;;;;;111.88;45.50;;;;;;;6.12;100.00;101469.48;10721628;82;21063;-84
2020/12/18 20:56:14;;;;;;;119.20;48.30;;;;;;;6.17;100.00;101469.23;10742588;82;21024;-84
2020/12/18 21:11:21;;;;;;;109.25;45.58;;;;;;;6.08;100.00;101467.92;10732441;82;21071;-85
2020/12/18 21:26:25;;;;;;;103.23;44.60;;;;;;;6.16;100.00;101476.22;10706925;82;21080;-84
2020/12/18 21:41:32;;;;;;;90.45;40.10;;;;;;;6.09;100.00;101488.33;10730422;82;21091;-85
2020/12/18 21:56:37;;;;;;;94.57;40.07;;;;;;;5.98;100.00;101494.91;10324152;84;21078;-84
2020/12/18 22:11:41;;;;;;;81.75;38.65;;;;;;;5.71;100.00;101497.53;10721005;82;21096;-89
2020/12/18 22:26:47;;;;;;;84.72;39.08;;;;;;;5.38;100.00;101491.72;10359823;84;21502;-82
2020/12/18 22:41:55;;;;;;;80.22;37.60;;;;;;;5.02;100.00;101492.52;10500841;83;21221;-84
2020/12/18 22:57:00;;;;;;;88.40;40.28;;;;;;;4.80;100.00;101490.42;10793360;81;21455;-86
2020/12/18 23:12:05;;;;;;;74.50;35.17;;;;;;;4.64;100.00;101490.23;10753554;82;21024;-82
2020/12/18 23:27:10;;;;;;;77.00;37.38;;;;;;;4.44;100.00;101492.87;10810651;81;21017;-86
2020/12/18 23:42:15;;;;;;;74.40;32.90;;;;;;;4.21;100.00;101489.94;10722190;81;21036;-85
2020/12/18 23:57:19;;;;;;;68.92;33.83;;;;;;;3.96;100.00;101487.09;10667373;82;21119;-85
